createdAt,value
2024-02-27T00:00:55.814Z,9.79
2024-02-27T00:03:28.485Z,9.83
2024-02-27T00:05:58.564Z,9.85
2024-02-27T00:08:28.589Z,9.81
2024-02-27T00:10:58.620Z,9.76
2024-02-27T00:13:28.574Z,9.77
2024-02-27T00:15:58.508Z,9.70
2024-02-27T00:18:31.968Z,9.68
2024-02-27T00:21:02.000Z,9.67
2024-02-27T00:23:33.171Z,9.65
2024-02-27T00:26:03.344Z,9.62
2024-02-27T00:28:33.818Z,9.68
2024-02-27T00:31:04.446Z,9.69
2024-02-27T00:33:37.193Z,9.64
2024-02-27T00:36:08.249Z,9.65
2024-02-27T00:38:38.448Z,9.69
2024-02-27T00:41:09.058Z,9.68
2024-02-27T00:43:38.952Z,9.69
2024-02-27T00:46:08.934Z,9.65
2024-02-27T00:48:41.564Z,9.55
2024-02-27T00:51:11.668Z,9.51
2024-02-27T00:53:41.668Z,9.54
2024-02-27T00:56:11.774Z,9.58
2024-02-27T00:58:41.749Z,9.58
2024-02-27T01:01:11.920Z,9.54
2024-02-27T01:03:44.495Z,9.54
2024-02-27T01:06:15.867Z,9.54
2024-02-27T01:08:45.941Z,9.54
2024-02-27T01:11:15.978Z,9.47
2024-02-27T01:13:45.945Z,9.48
2024-02-27T01:16:15.927Z,9.55
2024-02-27T01:18:48.587Z,9.55
2024-02-27T01:21:18.749Z,9.49
2024-02-27T01:23:48.914Z,9.56
2024-02-27T01:26:18.835Z,9.57
2024-02-27T01:28:48.767Z,9.55
2024-02-27T01:31:18.767Z,9.52
2024-02-27T01:33:51.853Z,9.50
2024-02-27T01:36:21.888Z,9.52
2024-02-27T01:38:51.964Z,9.58
2024-02-27T01:41:22.021Z,9.57
2024-02-27T01:43:52.083Z,9.60
2024-02-27T01:46:24.291Z,9.59
2024-02-27T01:48:57.256Z,9.65
2024-02-27T01:51:28.262Z,9.62
2024-02-27T01:54:02.928Z,9.54
2024-02-27T01:56:34.425Z,9.44
2024-02-27T01:59:05.320Z,9.39
2024-02-27T02:01:35.388Z,9.34
2024-02-27T02:04:09.659Z,9.32
2024-02-27T02:06:40.395Z,9.37
2024-02-27T02:09:10.459Z,9.29
2024-02-27T02:11:40.965Z,9.24
2024-02-27T02:14:11.031Z,9.19
2024-02-27T02:16:40.979Z,9.18
2024-02-27T02:19:13.880Z,9.11
2024-02-27T02:21:52.183Z,9.07
2024-02-27T02:24:23.646Z,9.11
2024-02-27T02:26:54.201Z,9.14
2024-02-27T02:29:24.327Z,9.16
2024-02-27T02:31:54.354Z,9.14
2024-02-27T02:34:24.490Z,9.20
2024-02-27T02:36:57.179Z,9.18
2024-02-27T02:39:27.336Z,9.14
2024-02-27T02:41:58.353Z,9.10
2024-02-27T02:44:28.329Z,9.06
2024-02-27T02:46:58.269Z,9.01
2024-02-27T02:49:28.317Z,9.02
2024-02-27T02:52:01.049Z,9.03
2024-02-27T02:54:31.002Z,9.00
2024-02-27T02:57:01.742Z,8.98
2024-02-27T02:59:31.801Z,8.96
2024-02-27T03:02:01.844Z,8.96
2024-02-27T03:04:31.821Z,8.99
2024-02-27T03:07:04.742Z,9.07
2024-02-27T03:09:35.044Z,9.09
2024-02-27T03:12:05.266Z,9.06
2024-02-27T03:14:35.333Z,9.03
2024-02-27T03:17:05.399Z,8.99
2024-02-27T03:19:35.492Z,9.06
2024-02-27T03:22:08.121Z,9.06
2024-02-27T03:24:38.179Z,9.00
2024-02-27T03:27:08.431Z,8.95
2024-02-27T03:29:38.380Z,8.83
2024-02-27T03:32:09.322Z,8.77
2024-02-27T03:34:39.944Z,8.77
2024-02-27T03:37:12.604Z,8.75
2024-02-27T03:39:42.578Z,8.75
2024-02-27T03:42:12.790Z,8.75
2024-02-27T03:44:47.566Z,8.79
2024-02-27T03:47:17.826Z,8.80
2024-02-27T03:49:47.871Z,8.77
2024-02-27T03:52:20.523Z,8.76
2024-02-27T03:54:50.569Z,8.77
2024-02-27T03:57:20.820Z,8.78
2024-02-27T03:59:50.826Z,8.79
2024-02-27T04:02:20.942Z,8.77
2024-02-27T04:04:50.941Z,8.79
2024-02-27T04:07:23.639Z,8.82
2024-02-27T04:09:53.604Z,8.81
2024-02-27T04:12:23.591Z,8.74
2024-02-27T04:14:53.635Z,8.72
2024-02-27T04:17:23.583Z,8.77
2024-02-27T04:19:55.113Z,8.85
2024-02-27T04:22:28.198Z,8.82
2024-02-27T04:24:58.176Z,8.72
2024-02-27T04:27:28.222Z,8.68
2024-02-27T04:29:58.417Z,8.64
2024-02-27T04:32:28.500Z,8.64
2024-02-27T04:34:58.486Z,8.70
2024-02-27T04:37:31.249Z,8.73
2024-02-27T04:40:01.327Z,8.79
2024-02-27T04:42:31.498Z,8.78
2024-02-27T04:45:01.562Z,8.78
2024-02-27T04:47:31.702Z,8.79
2024-02-27T04:50:02.211Z,8.82
2024-02-27T04:52:34.844Z,8.81
2024-02-27T04:55:04.792Z,8.80
2024-02-27T04:57:34.805Z,8.79
2024-02-27T05:00:05.761Z,8.90
2024-02-27T05:02:35.751Z,8.93
2024-02-27T05:05:06.219Z,8.89
2024-02-27T05:07:38.775Z,8.89
2024-02-27T05:10:09.450Z,8.81
2024-02-27T05:12:39.505Z,8.77
2024-02-27T05:15:10.541Z,8.74
2024-02-27T05:17:40.571Z,8.68
2024-02-27T05:20:12.181Z,8.69
2024-02-27T05:22:44.811Z,8.67
2024-02-27T05:25:14.945Z,8.65
2024-02-27T05:27:44.924Z,8.65
2024-02-27T05:30:16.376Z,8.65
2024-02-27T05:32:46.417Z,8.67
2024-02-27T05:35:16.534Z,8.65
2024-02-27T05:37:50.342Z,8.64
2024-02-27T05:40:20.601Z,8.61
2024-02-27T05:42:50.578Z,8.62
2024-02-27T05:45:20.820Z,8.61
2024-02-27T05:47:50.872Z,8.59
2024-02-27T05:50:21.342Z,8.54
2024-02-27T05:52:53.865Z,8.50
2024-02-27T05:55:23.801Z,8.51
2024-02-27T05:57:53.749Z,8.56
2024-02-27T06:00:24.493Z,8.55
2024-02-27T06:02:54.567Z,8.51
2024-02-27T06:05:24.553Z,8.48
2024-02-27T06:07:57.211Z,8.46
2024-02-27T06:10:27.132Z,8.45
2024-02-27T06:12:57.114Z,8.47
2024-02-27T06:15:27.179Z,8.46
2024-02-27T06:17:57.533Z,8.42
2024-02-27T06:20:40.071Z,8.40
2024-02-27T06:23:13.668Z,8.39
2024-02-27T06:25:43.910Z,8.45
2024-02-27T06:28:13.887Z,8.47
2024-02-27T06:30:43.878Z,8.45
2024-02-27T06:33:14.050Z,8.48
2024-02-27T06:35:44.299Z,8.51
2024-02-27T06:38:16.897Z,8.57
2024-02-27T06:40:47.026Z,8.61
2024-02-27T06:43:17.026Z,8.62
2024-02-27T06:45:47.001Z,8.67
2024-02-27T06:48:17.358Z,8.71
2024-02-27T06:50:47.429Z,8.72
2024-02-27T06:53:19.977Z,8.81
2024-02-27T06:55:50.206Z,8.80
2024-02-27T06:58:20.780Z,8.78
2024-02-27T07:00:50.848Z,8.77
2024-02-27T07:03:20.871Z,8.88
2024-02-27T07:05:53.779Z,8.95
2024-02-27T07:08:27.668Z,8.88
2024-02-27T07:10:57.980Z,8.88
2024-02-27T07:13:28.001Z,8.83
2024-02-27T07:15:58.046Z,8.79
2024-02-27T07:18:28.280Z,8.75
2024-02-27T07:21:01.302Z,8.74
2024-02-27T07:23:33.881Z,8.77
2024-02-27T07:26:03.912Z,8.80
2024-02-27T07:28:34.349Z,8.83
2024-02-27T07:31:04.503Z,8.89
2024-02-27T07:33:34.502Z,8.98
2024-02-27T07:36:04.683Z,9.06
2024-02-27T07:38:37.342Z,9.16
2024-02-27T07:41:07.291Z,9.16
2024-02-27T07:43:37.234Z,9.17
2024-02-27T07:46:08.349Z,9.29
2024-02-27T07:48:38.324Z,9.48
2024-02-27T07:51:08.939Z,9.64
2024-02-27T07:53:41.517Z,9.78
2024-02-27T07:56:11.622Z,9.91
2024-02-27T07:58:42.445Z,10.01
2024-02-27T08:01:13.647Z,10.04
2024-02-27T08:03:45.860Z,10.17
2024-02-27T08:06:16.148Z,10.27
2024-02-27T08:08:48.776Z,10.30
2024-02-27T08:11:19.036Z,10.42
2024-02-27T08:13:49.099Z,10.63
2024-02-27T08:16:19.082Z,10.85
2024-02-27T08:18:49.545Z,10.98
2024-02-27T08:21:19.602Z,11.20
2024-02-27T08:23:52.258Z,11.51
2024-02-27T08:26:22.544Z,11.68
2024-02-27T08:28:52.593Z,11.85
2024-02-27T08:31:24.128Z,12.08
2024-02-27T08:33:54.760Z,12.21
2024-02-27T08:36:26.416Z,12.23
2024-02-27T08:38:59.039Z,12.28
2024-02-27T08:41:29.325Z,12.37
2024-02-27T08:43:59.290Z,12.40
2024-02-27T08:46:29.371Z,12.44
2024-02-27T08:49:01.058Z,12.53
2024-02-27T08:51:32.557Z,12.53
2024-02-27T08:54:05.237Z,12.52
2024-02-27T08:56:35.978Z,12.57
2024-02-27T08:59:05.934Z,12.61
2024-02-27T09:01:36.034Z,12.51
2024-02-27T09:04:06.566Z,12.36
2024-02-27T09:06:36.745Z,12.20
2024-02-27T09:09:09.644Z,11.95
2024-02-27T09:11:40.283Z,11.82
2024-02-27T09:14:10.248Z,11.77
2024-02-27T09:16:40.455Z,11.61
2024-02-27T09:19:10.542Z,11.48
2024-02-27T09:21:41.078Z,11.46
2024-02-27T09:24:13.918Z,11.41
2024-02-27T09:26:43.877Z,11.21
2024-02-27T09:29:13.909Z,11.21
2024-02-27T09:31:44.201Z,11.18
2024-02-27T09:34:15.164Z,11.11
2024-02-27T09:36:45.498Z,11.17
2024-02-27T09:39:18.203Z,11.18
2024-02-27T09:41:59.093Z,11.03
2024-02-27T09:44:29.184Z,10.91
2024-02-27T09:47:00.476Z,10.96
2024-02-27T09:49:40.635Z,11.06
2024-02-27T09:52:15.821Z,11.12
2024-02-27T09:54:50.081Z,11.05
2024-02-27T09:57:20.502Z,10.94
2024-02-27T09:59:52.546Z,10.85
2024-02-27T10:02:22.769Z,10.91
2024-02-27T10:04:54.759Z,10.95
2024-02-27T10:07:26.481Z,10.88
2024-02-27T10:09:59.286Z,10.83
2024-02-27T10:12:31.024Z,10.86
2024-02-27T10:15:01.104Z,10.75
2024-02-27T10:17:34.355Z,10.77
2024-02-27T10:20:06.159Z,10.85
2024-02-27T10:22:36.148Z,10.88
2024-02-27T10:25:16.798Z,10.92
2024-02-27T10:27:47.398Z,10.87
2024-02-27T10:30:18.431Z,10.88
2024-02-27T10:32:48.536Z,10.96
2024-02-27T10:35:18.962Z,10.94
2024-02-27T10:37:49.517Z,10.92
2024-02-27T10:40:23.116Z,10.80
2024-02-27T10:42:53.137Z,10.71
2024-02-27T10:45:23.273Z,10.71
2024-02-27T10:47:53.379Z,10.75
2024-02-27T10:50:27.598Z,10.91
2024-02-27T10:53:00.491Z,11.04
2024-02-27T10:55:35.852Z,11.25
2024-02-27T10:58:07.781Z,11.32
2024-02-27T11:00:37.790Z,11.28
2024-02-27T11:03:12.571Z,11.31
2024-02-27T11:05:48.052Z,11.42
2024-02-27T11:08:20.038Z,11.41
2024-02-27T11:10:53.155Z,11.44
2024-02-27T11:13:25.929Z,11.46
2024-02-27T11:15:58.431Z,11.46
2024-02-27T11:18:37.554Z,11.54
2024-02-27T11:21:09.084Z,11.72
2024-02-27T11:23:39.854Z,11.89
2024-02-27T11:26:12.658Z,11.87
2024-02-27T11:28:43.819Z,12.02
2024-02-27T11:31:14.800Z,12.24
2024-02-27T11:33:51.164Z,12.45
2024-02-27T11:36:21.966Z,12.52
2024-02-27T11:38:52.997Z,12.60
2024-02-27T11:41:26.350Z,12.72
2024-02-27T11:43:59.869Z,12.82
2024-02-27T11:46:41.173Z,13.04
2024-02-27T11:49:12.733Z,13.19
2024-02-27T11:51:44.222Z,13.40
2024-02-27T11:54:15.983Z,13.54
2024-02-27T11:56:54.474Z,13.70
2024-02-27T11:59:24.780Z,13.81
2024-02-27T12:02:05.222Z,13.83
2024-02-27T12:04:35.227Z,13.90
2024-02-27T12:07:05.360Z,13.98
2024-02-27T12:09:35.499Z,14.02
2024-02-27T12:12:08.532Z,14.26
2024-02-27T12:14:38.564Z,14.39
2024-02-27T12:17:08.616Z,14.63
2024-02-27T12:19:38.606Z,14.71
2024-02-27T12:22:09.044Z,14.68
2024-02-27T12:24:39.042Z,14.54
2024-02-27T12:27:11.789Z,14.18
2024-02-27T12:29:41.833Z,13.98
2024-02-27T12:32:11.906Z,13.94
2024-02-27T12:34:42.071Z,14.08
2024-02-27T12:37:12.603Z,14.10
2024-02-27T12:39:43.129Z,14.13
2024-02-27T12:42:16.882Z,14.24
2024-02-27T12:44:51.414Z,14.39
2024-02-27T12:47:22.377Z,14.36
2024-02-27T12:49:52.549Z,14.18
2024-02-27T12:52:22.694Z,14.13
2024-02-27T12:54:52.840Z,14.06
2024-02-27T12:57:25.720Z,14.08
2024-02-27T12:59:55.782Z,14.03
2024-02-27T13:02:28.635Z,13.90
2024-02-27T13:05:00.673Z,13.82
2024-02-27T13:07:30.840Z,13.70
2024-02-27T13:10:01.174Z,13.69
2024-02-27T13:12:33.871Z,13.54
2024-02-27T13:15:04.570Z,13.48
2024-02-27T13:17:34.726Z,13.46
2024-02-27T13:20:05.276Z,13.46
2024-02-27T13:22:35.347Z,13.44
2024-02-27T13:25:05.302Z,13.52
2024-02-27T13:27:37.954Z,13.59
2024-02-27T13:30:09.332Z,13.59
2024-02-27T13:32:39.502Z,13.52
2024-02-27T13:35:10.190Z,13.49
2024-02-27T13:37:40.248Z,13.48
2024-02-27T13:40:11.595Z,13.34
2024-02-27T13:42:44.410Z,13.43
2024-02-27T13:45:14.547Z,13.42
2024-02-27T13:47:44.578Z,13.44
2024-02-27T13:50:14.601Z,13.37
2024-02-27T13:52:48.365Z,13.38
2024-02-27T13:55:19.042Z,13.43
2024-02-27T13:57:51.658Z,13.45
2024-02-27T14:00:22.589Z,13.39
2024-02-27T14:02:52.897Z,13.34
2024-02-27T14:05:22.920Z,13.34
2024-02-27T14:07:54.415Z,13.43
2024-02-27T14:10:24.366Z,13.45
2024-02-27T14:12:57.250Z,13.40
2024-02-27T14:15:27.328Z,13.38
2024-02-27T14:17:57.438Z,13.32
2024-02-27T14:20:27.562Z,13.24
2024-02-27T14:22:57.531Z,13.30
2024-02-27T14:25:27.505Z,13.42
2024-02-27T14:28:00.113Z,13.43
2024-02-27T14:30:30.118Z,13.36
2024-02-27T14:33:01.937Z,13.25
2024-02-27T14:35:32.049Z,13.21
2024-02-27T14:38:02.028Z,13.33
2024-02-27T14:40:33.887Z,13.31
2024-02-27T14:43:07.293Z,13.22
2024-02-27T14:45:37.348Z,13.14
2024-02-27T14:48:08.605Z,13.16
2024-02-27T14:50:38.719Z,13.25
2024-02-27T14:53:08.727Z,13.18
2024-02-27T14:55:40.459Z,13.16
2024-02-27T14:58:15.328Z,13.15
2024-02-27T15:00:45.566Z,13.03
2024-02-27T15:03:15.865Z,12.95
2024-02-27T15:05:46.028Z,12.88
2024-02-27T15:08:16.042Z,12.94
2024-02-27T15:10:46.019Z,13.04
2024-02-27T15:13:18.816Z,13.15
2024-02-27T15:15:49.305Z,13.51
2024-02-27T15:18:21.350Z,14.09
2024-02-27T15:20:53.439Z,14.64
2024-02-27T15:23:24.403Z,14.65
2024-02-27T15:25:54.498Z,14.38
2024-02-27T15:28:27.270Z,14.15
2024-02-27T15:30:57.247Z,14.14
2024-02-27T15:33:27.338Z,14.04
2024-02-27T15:35:57.353Z,13.98
2024-02-27T15:38:27.337Z,13.81
2024-02-27T15:40:57.361Z,13.50
2024-02-27T15:43:29.950Z,13.34
2024-02-27T15:45:59.942Z,13.30
2024-02-27T15:48:30.086Z,13.29
2024-02-27T15:51:00.057Z,13.28
2024-02-27T15:53:30.088Z,13.18
2024-02-27T15:56:00.146Z,13.08
2024-02-27T15:58:32.712Z,13.10
2024-02-27T16:01:02.725Z,13.03
2024-02-27T16:03:52.061Z,13.04
2024-02-27T16:06:28.894Z,12.98
2024-02-27T16:08:59.479Z,12.85
2024-02-27T16:11:29.510Z,12.74
2024-02-27T16:14:02.156Z,12.72
2024-02-27T16:16:32.463Z,12.74
2024-02-27T16:19:02.587Z,12.67
2024-02-27T16:21:44.920Z,12.61
2024-02-27T16:24:14.955Z,12.55
2024-02-27T16:26:45.123Z,12.51
2024-02-27T16:29:17.874Z,12.37
2024-02-27T16:31:48.571Z,12.34
2024-02-27T16:34:18.771Z,12.42
2024-02-27T16:36:48.927Z,12.31
2024-02-27T16:39:19.073Z,12.20
2024-02-27T16:41:49.172Z,12.11
2024-02-27T16:44:21.717Z,12.03
2024-02-27T16:46:51.713Z,11.92
2024-02-27T16:49:22.239Z,11.86
2024-02-27T16:51:52.430Z,11.84
2024-02-27T16:54:22.460Z,11.85
2024-02-27T16:56:52.737Z,11.91
2024-02-27T16:59:25.365Z,11.87
2024-02-27T17:01:55.578Z,11.84
2024-02-27T17:04:25.664Z,11.78
2024-02-27T17:06:55.893Z,11.72
2024-02-27T17:09:26.069Z,11.69
2024-02-27T17:11:56.156Z,11.64
2024-02-27T17:14:28.796Z,11.60
2024-02-27T17:16:58.813Z,11.55
2024-02-27T17:19:28.902Z,11.66
2024-02-27T17:21:58.972Z,11.68
2024-02-27T17:24:29.080Z,11.60
2024-02-27T17:26:59.126Z,11.49
2024-02-27T17:29:31.656Z,11.43
2024-02-27T17:32:01.624Z,11.36
2024-02-27T17:34:31.643Z,11.34
2024-02-27T17:37:01.721Z,11.31
2024-02-27T17:39:31.788Z,11.23
2024-02-27T17:42:01.876Z,11.19
2024-02-27T17:44:36.613Z,11.18
2024-02-27T17:47:06.836Z,11.17
2024-02-27T17:49:39.263Z,11.17
2024-02-27T17:52:10.288Z,11.14
2024-02-27T17:54:40.266Z,11.12
2024-02-27T17:57:10.237Z,11.11
2024-02-27T17:59:43.085Z,11.09
2024-02-27T18:02:14.922Z,11.05
2024-02-27T18:04:45.189Z,11.01
2024-02-27T18:07:15.256Z,10.98
2024-02-27T18:09:45.561Z,10.96
2024-02-27T18:12:15.680Z,10.91
2024-02-27T18:14:49.960Z,10.88
2024-02-27T18:17:19.917Z,10.85
2024-02-27T18:19:50.167Z,10.81
2024-02-27T18:22:20.232Z,10.76
2024-02-27T18:24:50.310Z,10.72
2024-02-27T18:27:22.679Z,10.71
2024-02-27T18:29:55.262Z,10.68
2024-02-27T18:32:25.248Z,10.65
2024-02-27T18:34:55.436Z,10.62
2024-02-27T18:37:25.489Z,10.55
2024-02-27T18:39:53.625Z,10.53
2024-02-27T18:42:23.909Z,10.51
2024-02-27T18:44:56.602Z,10.48
2024-02-27T18:47:26.552Z,10.45
2024-02-27T18:49:57.676Z,10.42
2024-02-27T18:52:28.040Z,10.43
2024-02-27T18:54:58.083Z,10.42
2024-02-27T18:57:28.061Z,10.38
2024-02-27T19:00:00.645Z,10.34
2024-02-27T19:02:30.902Z,10.30
2024-02-27T19:05:01.141Z,10.26
2024-02-27T19:07:31.967Z,10.19
2024-02-27T19:10:02.120Z,10.16
2024-02-27T19:12:32.573Z,10.14
2024-02-27T19:15:05.862Z,10.13
2024-02-27T19:17:35.928Z,10.10
2024-02-27T19:20:07.417Z,10.09
2024-02-27T19:22:37.542Z,10.03
2024-02-27T19:25:09.621Z,10.03
2024-02-27T19:27:39.891Z,9.98
2024-02-27T19:30:13.550Z,9.99
2024-02-27T19:32:43.578Z,9.98
2024-02-27T19:35:13.583Z,9.95
2024-02-27T19:37:43.775Z,9.93
2024-02-27T19:40:16.272Z,9.88
2024-02-27T19:42:47.261Z,9.80
2024-02-27T19:45:19.892Z,9.81
2024-02-27T19:47:50.224Z,9.80
2024-02-27T19:50:22.221Z,9.76
2024-02-27T19:52:52.142Z,9.75
2024-02-27T19:55:22.203Z,9.76
2024-02-27T19:57:52.225Z,9.75
2024-02-27T20:00:25.018Z,9.74
2024-02-27T20:02:55.099Z,9.73
2024-02-27T20:05:25.174Z,9.73
2024-02-27T20:07:58.201Z,9.70
2024-02-27T20:10:28.241Z,9.68
2024-02-27T20:12:58.152Z,9.66
2024-02-27T20:15:31.308Z,9.68
2024-02-27T20:18:02.803Z,9.73
2024-02-27T20:20:32.784Z,9.76
2024-02-27T20:23:03.168Z,9.74
2024-02-27T20:25:33.265Z,9.72
2024-02-27T20:28:04.459Z,9.72
2024-02-27T20:30:37.205Z,9.73
2024-02-27T20:33:07.531Z,9.74
2024-02-27T20:35:38.692Z,9.77
2024-02-27T20:38:08.852Z,9.74
2024-02-27T20:40:38.822Z,9.73
2024-02-27T20:43:08.772Z,9.75
2024-02-27T20:45:41.502Z,9.76
2024-02-27T20:48:12.000Z,9.79
2024-02-27T20:50:42.109Z,9.78
2024-02-27T20:53:12.247Z,9.82
2024-02-27T20:55:45.891Z,9.84
2024-02-27T20:58:15.940Z,9.87
2024-02-27T21:00:48.572Z,9.88
2024-02-27T21:03:18.593Z,9.88
2024-02-27T21:05:48.589Z,9.88
2024-02-27T21:08:18.569Z,9.90
2024-02-27T21:10:48.784Z,9.90
2024-02-27T21:13:19.349Z,9.88
2024-02-27T21:15:51.972Z,9.90
2024-02-27T21:18:22.029Z,9.92
2024-02-27T21:20:52.022Z,9.93
2024-02-27T21:23:22.013Z,9.95
2024-02-27T21:25:52.104Z,9.96
2024-02-27T21:28:22.456Z,9.95
2024-02-27T21:30:55.012Z,9.90
2024-02-27T21:33:25.288Z,9.86
2024-02-27T21:35:55.300Z,9.83
2024-02-27T21:38:25.249Z,9.81
2024-02-27T21:40:55.194Z,9.76
2024-02-27T21:43:25.287Z,9.77
2024-02-27T21:46:00.184Z,9.79
2024-02-27T21:48:30.238Z,9.77
2024-02-27T21:51:00.218Z,9.78
2024-02-27T21:53:30.278Z,9.82
2024-02-27T21:56:00.251Z,9.88
2024-02-27T21:58:30.378Z,9.95
2024-02-27T22:01:03.057Z,9.99
2024-02-27T22:03:33.516Z,10.03
2024-02-27T22:06:03.715Z,10.11
2024-02-27T22:08:33.716Z,10.13
2024-02-27T22:11:04.807Z,10.13
2024-02-27T22:13:34.849Z,10.13
2024-02-27T22:16:08.392Z,10.13
2024-02-27T22:18:38.455Z,10.11
2024-02-27T22:21:08.994Z,10.11
2024-02-27T22:23:39.138Z,10.13
2024-02-27T22:26:09.122Z,10.17
2024-02-27T22:28:39.456Z,10.16
2024-02-27T22:31:12.009Z,10.17
2024-02-27T22:33:42.006Z,10.18
2024-02-27T22:36:12.132Z,10.15
2024-02-27T22:38:42.182Z,10.12
2024-02-27T22:41:12.597Z,10.13
2024-02-27T22:43:42.598Z,10.14
2024-02-27T22:46:15.237Z,10.16
2024-02-27T22:48:45.326Z,10.15
2024-02-27T22:51:15.779Z,10.18
2024-02-27T22:53:45.777Z,10.22
2024-02-27T22:56:15.778Z,10.21
2024-02-27T22:58:45.696Z,10.17
2024-02-27T23:01:18.334Z,10.17
2024-02-27T23:03:48.402Z,10.15
2024-02-27T23:06:18.996Z,10.15
2024-02-27T23:08:48.930Z,10.17
2024-02-27T23:11:19.302Z,10.21
2024-02-27T23:13:49.711Z,10.21
2024-02-27T23:16:22.307Z,10.20
2024-02-27T23:18:52.357Z,10.22
2024-02-27T23:21:22.442Z,10.24
2024-02-27T23:23:52.462Z,10.27
2024-02-27T23:26:23.101Z,10.26
2024-02-27T23:28:54.156Z,10.26
2024-02-27T23:31:26.741Z,10.28
2024-02-27T23:33:58.204Z,10.28
2024-02-27T23:36:28.345Z,10.29
2024-02-27T23:38:58.345Z,10.27
2024-02-27T23:41:28.331Z,10.29
2024-02-27T23:43:58.270Z,10.28
2024-02-27T23:46:30.939Z,10.28
2024-02-27T23:49:00.948Z,10.32
2024-02-27T23:51:31.002Z,10.31
2024-02-27T23:54:01.208Z,10.31
2024-02-27T23:56:31.138Z,10.30
2024-02-27T23:59:01.304Z,10.31
